Time;durP1;ratioP1;P1;durP2;ratioP2;P2;SDS_P1;SDS_P2;PMS_P1;PMS_P2;Temp;Humidity;BMP_temperature;BMP_pressure;BME280_temperature;BME280_humidity;BME280_pressure;Samples;Min_cycle;Max_cycle;Signal;HPM_P1;HPM_P2
2023/08/02 00:02:12;;;;;;;3.97;1.65;;;16.60;99.90;;;;;;5052714;28;20124;-71
2023/08/02 00:04:38;;;;;;;3.03;1.40;;;16.60;99.90;;;;;;5043261;28;20140;-71
2023/08/02 00:07:05;;;;;;;4.43;1.60;;;16.60;99.90;;;;;;5040553;28;20113;-71
2023/08/02 00:09:32;;;;;;;5.18;1.50;;;16.60;99.90;;;;;;5039068;28;20052;-72
2023/08/02 00:11:57;;;;;;;5.68;1.70;;;16.60;99.90;;;;;;5046389;28;20045;-71
2023/08/02 00:14:23;;;;;;;4.47;1.90;;;16.50;99.90;;;;;;5041831;28;20048;-72
2023/08/02 00:16:49;;;;;;;3.40;1.77;;;16.50;99.90;;;;;;5050648;28;20442;-71
2023/08/02 00:19:15;;;;;;;4.25;1.70;;;16.50;99.90;;;;;;5051774;28;20049;-71
2023/08/02 00:21:41;;;;;;;4.57;1.70;;;16.50;99.90;;;;;;5050621;28;20044;-71
2023/08/02 00:24:07;;;;;;;3.67;1.70;;;16.50;99.90;;;;;;5048590;28;20036;-71
2023/08/02 00:26:33;;;;;;;6.88;2.05;;;16.50;99.90;;;;;;5052631;28;20382;-70
2023/08/02 00:28:59;;;;;;;5.82;1.65;;;16.50;99.90;;;;;;5052651;28;20036;-71
2023/08/02 00:31:24;;;;;;;3.58;1.50;;;16.50;99.90;;;;;;5051430;28;20195;-71
2023/08/02 00:33:50;;;;;;;4.90;1.75;;;16.50;99.90;;;;;;5051651;28;20052;-72
2023/08/02 00:36:16;;;;;;;4.85;2.10;;;16.50;99.90;;;;;;5053706;28;20400;-70
2023/08/02 00:38:42;;;;;;;6.28;1.70;;;16.50;99.90;;;;;;5049930;28;20049;-70
2023/08/02 00:41:09;;;;;;;4.65;1.75;;;16.50;99.90;;;;;;5046319;28;20048;-71
2023/08/02 00:43:53;;;;;;;8.80;2.15;;;16.50;99.90;;;;;;5052285;28;20045;-71
2023/08/02 00:46:20;;;;;;;4.60;1.73;;;16.50;99.90;;;;;;5051980;28;20052;-71
2023/08/02 00:48:46;;;;;;;5.22;1.95;;;16.50;99.90;;;;;;5051082;28;20053;-70
2023/08/02 00:51:16;;;;;;;4.95;1.92;;;16.40;99.90;;;;;;5035701;28;20482;-71
2023/08/02 00:53:46;;;;;;;6.68;2.00;;;16.50;99.90;;;;;;5051720;28;20060;-71
2023/08/02 00:56:14;;;;;;;5.88;2.00;;;16.50;99.90;;;;;;5053220;28;20140;-71
2023/08/02 00:58:40;;;;;;;5.55;2.17;;;16.50;99.90;;;;;;5051701;28;20045;-71
2023/08/02 01:01:07;;;;;;;4.00;1.80;;;16.50;99.90;;;;;;5051766;28;20041;-71
2023/08/02 01:03:41;;;;;;;8.10;2.10;;;16.50;99.90;;;;;;5051842;28;20120;-70
2023/08/02 01:06:34;;;;;;;7.47;2.42;;;16.50;99.90;;;;;;5051594;28;20052;-71
2023/08/02 01:09:07;;;;;;;8.82;2.30;;;16.40;99.90;;;;;;5052531;28;20056;-71
2023/08/02 01:11:47;;;;;;;6.38;1.90;;;16.40;99.90;;;;;;5039174;28;20060;-71
2023/08/02 01:14:18;;;;;;;7.05;2.28;;;16.40;99.90;;;;;;5039912;28;20120;-71
2023/08/02 01:16:44;;;;;;;5.80;2.30;;;16.40;99.90;;;;;;5050906;28;20175;-71
2023/08/02 01:19:11;;;;;;;5.07;2.50;;;16.40;99.90;;;;;;5052280;28;20047;-71
2023/08/02 01:21:37;;;;;;;4.25;2.40;;;16.40;99.90;;;;;;5052509;28;20394;-70
2023/08/02 01:24:05;;;;;;;6.57;2.33;;;16.40;99.90;;;;;;5051207;28;20144;-71
2023/08/02 01:26:32;;;;;;;5.97;2.30;;;16.40;99.90;;;;;;5051265;28;20502;-71
2023/08/02 01:29:03;;;;;;;5.80;2.67;;;16.40;99.90;;;;;;5051047;28;20098;-71
2023/08/02 01:31:32;;;;;;;13.43;2.97;;;16.40;99.90;;;;;;5052670;28;20061;-71
2023/08/02 01:33:58;;;;;;;9.15;2.97;;;16.40;99.90;;;;;;5050573;28;20041;-71
2023/08/02 01:36:24;;;;;;;8.90;3.10;;;16.40;99.90;;;;;;5052513;28;20041;-72
2023/08/02 01:38:51;;;;;;;5.80;2.72;;;16.40;99.90;;;;;;5033767;28;20044;-72
2023/08/02 01:41:17;;;;;;;8.48;2.97;;;16.40;99.90;;;;;;5052565;28;20077;-72
2023/08/02 01:43:43;;;;;;;9.63;2.95;;;16.40;99.90;;;;;;5042861;28;20075;-72
2023/08/02 01:46:08;;;;;;;8.65;3.22;;;16.40;99.90;;;;;;5051338;28;20164;-71
2023/08/02 01:48:34;;;;;;;8.43;2.88;;;16.40;99.90;;;;;;5050988;28;20041;-71
2023/08/02 01:51:00;;;;;;;6.60;2.58;;;16.40;99.90;;;;;;5050568;28;20098;-72
2023/08/02 01:53:25;;;;;;;7.93;3.17;;;16.40;99.90;;;;;;5067446;28;20128;-72
2023/08/02 01:55:51;;;;;;;8.52;3.22;;;16.40;99.90;;;;;;5049806;28;20079;-73
2023/08/02 01:58:17;;;;;;;9.05;3.03;;;16.30;99.90;;;;;;5051287;28;20057;-72
2023/08/02 02:00:43;;;;;;;8.10;2.95;;;16.30;99.90;;;;;;5065914;28;20060;-71
2023/08/02 02:03:08;;;;;;;12.35;3.80;;;16.30;99.90;;;;;;5050870;28;20483;-72
2023/08/02 02:05:34;;;;;;;6.30;3.00;;;16.30;99.90;;;;;;5051741;28;20109;-72
2023/08/02 02:08:00;;;;;;;7.03;3.40;;;16.30;99.90;;;;;;5050633;28;20037;-72
2023/08/02 02:10:25;;;;;;;8.52;3.55;;;16.40;99.90;;;;;;5046672;28;20137;-72
2023/08/02 02:12:51;;;;;;;11.30;3.70;;;16.30;99.90;;;;;;5045511;28;20040;-71
2023/08/02 02:15:17;;;;;;;9.75;3.13;;;16.30;99.90;;;;;;5040257;28;20173;-72
2023/08/02 02:17:43;;;;;;;10.95;3.30;;;16.30;99.90;;;;;;5051939;28;20052;-72
2023/08/02 02:20:09;;;;;;;9.77;3.40;;;16.30;99.90;;;;;;5050860;28;20483;-72
2023/08/02 02:22:35;;;;;;;8.05;3.22;;;16.30;99.90;;;;;;5027551;28;20037;-72
2023/08/02 02:25:01;;;;;;;9.65;3.33;;;16.30;99.90;;;;;;5049404;28;20053;-72
2023/08/02 02:27:27;;;;;;;6.43;3.33;;;16.20;99.90;;;;;;5051530;28;20091;-72
2023/08/02 02:29:52;;;;;;;9.35;3.22;;;16.30;99.90;;;;;;5050772;28;20080;-72
2023/08/02 02:32:18;;;;;;;7.32;3.50;;;16.30;99.90;;;;;;5066684;28;20049;-72
2023/08/02 02:34:44;;;;;;;11.80;4.00;;;16.20;99.90;;;;;;5050346;28;20045;-72
2023/08/02 02:37:09;;;;;;;8.05;3.08;;;16.20;99.90;;;;;;5065774;28;20043;-72
2023/08/02 02:39:36;;;;;;;10.50;3.70;;;16.20;99.90;;;;;;5034059;28;20552;-72
2023/08/02 02:42:01;;;;;;;8.20;3.38;;;16.20;99.90;;;;;;5050701;28;20068;-72
2023/08/02 02:44:43;;;;;;;10.15;3.58;;;16.20;99.90;;;;;;5050212;28;20092;-72
2023/08/02 02:47:10;;;;;;;6.68;3.22;;;16.20;99.90;;;;;;5049434;28;20215;-72
2023/08/02 02:49:36;;;;;;;10.38;3.30;;;16.20;99.90;;;;;;5033903;28;20061;-73
2023/08/02 02:52:02;;;;;;;8.18;3.55;;;16.20;99.90;;;;;;5049189;28;20360;-72
2023/08/02 02:54:27;;;;;;;10.27;3.65;;;16.20;99.90;;;;;;5066792;28;20068;-72
2023/08/02 02:56:53;;;;;;;6.00;3.28;;;16.20;99.90;;;;;;5049842;28;20053;-70
2023/08/02 02:59:19;;;;;;;8.93;3.42;;;16.30;99.90;;;;;;5050660;28;20049;-71
2023/08/02 03:01:45;;;;;;;13.55;3.40;;;16.30;99.90;;;;;;5050018;28;20118;-72
2023/08/02 03:04:10;;;;;;;13.10;3.90;;;16.30;99.90;;;;;;5049210;28;20128;-70
2023/08/02 03:06:36;;;;;;;12.90;3.63;;;16.20;99.90;;;;;;5050935;28;20045;-71
2023/08/02 03:09:02;;;;;;;13.30;3.90;;;16.20;99.90;;;;;;5049331;28;20398;-71
2023/08/02 03:11:27;;;;;;;11.18;4.28;;;16.20;99.90;;;;;;5052141;28;20114;-70
2023/08/02 03:13:53;;;;;;;10.30;4.55;;;16.20;99.90;;;;;;5052855;28;20063;-69
2023/08/02 03:16:19;;;;;;;10.45;3.97;;;16.20;99.90;;;;;;5053739;28;20479;-69
2023/08/02 03:18:45;;;;;;;10.30;3.90;;;16.20;99.90;;;;;;5054876;28;20486;-70
2023/08/02 03:21:11;;;;;;;11.48;4.22;;;16.20;99.90;;;;;;5053644;28;20094;-71
2023/08/02 03:23:36;;;;;;;12.27;4.07;;;16.20;99.90;;;;;;5054815;28;20517;-70
2023/08/02 03:26:02;;;;;;;11.75;4.20;;;16.10;99.90;;;;;;5033240;28;20045;-70
2023/08/02 03:28:28;;;;;;;14.02;4.22;;;16.10;99.90;;;;;;5054195;28;20056;-71
2023/08/02 03:30:54;;;;;;;12.90;4.25;;;16.10;99.90;;;;;;5053457;28;20048;-70
2023/08/02 03:33:20;;;;;;;10.30;4.07;;;16.10;99.90;;;;;;5053756;28;20041;-72
2023/08/02 03:35:46;;;;;;;13.55;4.40;;;16.10;99.90;;;;;;5053378;28;20052;-71
2023/08/02 03:38:11;;;;;;;10.55;4.25;;;16.20;99.90;;;;;;5053828;28;20486;-72
2023/08/02 03:40:37;;;;;;;10.07;3.80;;;16.20;99.90;;;;;;5054482;28;20098;-71
2023/08/02 03:43:02;;;;;;;14.13;4.30;;;16.20;99.90;;;;;;5054387;28;20045;-70
2023/08/02 03:45:28;;;;;;;10.18;3.90;;;16.20;99.90;;;;;;5053264;28;20056;-72
2023/08/02 03:47:54;;;;;;;23.58;4.72;;;16.10;99.90;;;;;;5053522;28;20067;-71
2023/08/02 03:50:20;;;;;;;13.50;4.15;;;16.10;99.90;;;;;;5053648;28;20040;-71
2023/08/02 03:52:45;;;;;;;10.80;4.28;;;16.10;99.90;;;;;;5052790;28;20095;-71
2023/08/02 03:55:11;;;;;;;19.45;4.25;;;16.10;99.90;;;;;;5053171;28;20371;-71
2023/08/02 03:57:37;;;;;;;13.77;4.20;;;16.10;99.90;;;;;;5054516;28;20448;-72
2023/08/02 04:00:03;;;;;;;11.50;3.97;;;16.10;99.90;;;;;;5053659;28;20128;-72
2023/08/02 04:02:29;;;;;;;10.40;4.28;;;16.10;99.90;;;;;;5053221;28;20052;-72
2023/08/02 04:04:55;;;;;;;14.68;4.50;;;16.10;99.90;;;;;;5053554;28;20052;-72
2023/08/02 04:07:21;;;;;;;12.48;4.55;;;16.00;99.90;;;;;;5035554;28;20052;-71
2023/08/02 04:09:47;;;;;;;12.98;4.60;;;16.00;99.90;;;;;;5053796;28;20045;-72
2023/08/02 04:12:13;;;;;;;15.23;4.68;;;16.10;99.90;;;;;;5053451;28;20045;-71
2023/08/02 04:14:38;;;;;;;15.65;5.20;;;16.00;99.90;;;;;;5055686;28;20068;-71
2023/08/02 04:17:04;;;;;;;12.05;4.15;;;16.00;99.90;;;;;;5051608;28;20447;-70
2023/08/02 04:19:31;;;;;;;18.67;5.32;;;16.00;99.90;;;;;;5052366;28;20049;-72
2023/08/02 04:21:56;;;;;;;19.42;5.10;;;16.00;99.90;;;;;;5054488;28;20059;-72
2023/08/02 04:24:23;;;;;;;14.00;4.63;;;16.00;99.90;;;;;;5052817;28;20494;-71
2023/08/02 04:26:48;;;;;;;13.07;4.82;;;16.00;99.90;;;;;;5069012;28;20431;-72
2023/08/02 04:29:14;;;;;;;14.45;5.18;;;16.00;99.90;;;;;;5035153;28;20044;-72
2023/08/02 04:31:40;;;;;;;19.55;5.20;;;16.00;99.90;;;;;;5053650;28;20048;-72
2023/08/02 04:34:05;;;;;;;12.57;5.13;;;15.90;99.90;;;;;;5068780;28;20510;-71
2023/08/02 04:36:31;;;;;;;13.30;5.78;;;16.00;99.90;;;;;;5069008;28;20041;-71
2023/08/02 04:38:57;;;;;;;17.77;5.53;;;15.90;99.90;;;;;;5069013;28;20093;-71
2023/08/02 04:41:22;;;;;;;15.82;5.00;;;15.90;99.90;;;;;;5068261;28;20761;-73
2023/08/02 04:43:48;;;;;;;19.73;6.00;;;16.00;99.90;;;;;;5052572;28;20344;-71
2023/08/02 04:46:14;;;;;;;16.17;5.85;;;15.90;99.90;;;;;;5052019;28;20048;-70
2023/08/02 04:48:39;;;;;;;18.20;6.18;;;16.00;99.90;;;;;;5052252;28;20060;-71
2023/08/02 04:51:08;;;;;;;14.48;6.03;;;16.00;99.90;;;;;;5060320;28;20475;-71
2023/08/02 04:53:34;;;;;;;18.70;6.07;;;15.90;99.90;;;;;;5047083;28;20535;-72
2023/08/02 04:56:00;;;;;;;17.73;6.05;;;15.90;99.90;;;;;;5084952;28;20558;-72
2023/08/02 04:58:26;;;;;;;17.88;6.25;;;15.90;99.90;;;;;;5051721;28;20188;-72
2023/08/02 05:00:51;;;;;;;14.48;6.00;;;15.90;99.90;;;;;;5051597;28;20044;-71
2023/08/02 05:03:17;;;;;;;15.18;5.65;;;15.90;99.90;;;;;;5052879;28;20071;-73
2023/08/02 05:05:43;;;;;;;17.10;5.53;;;15.90;99.90;;;;;;5051932;28;20048;-73
2023/08/02 05:08:09;;;;;;;15.27;5.63;;;15.90;99.90;;;;;;5052678;28;20037;-70
2023/08/02 05:10:37;;;;;;;17.95;6.00;;;15.90;99.90;;;;;;5036042;28;20502;-70
2023/08/02 05:13:05;;;;;;;15.63;6.53;;;15.90;99.90;;;;;;5049147;28;20041;-71
2023/08/02 05:15:37;;;;;;;16.42;5.57;;;15.90;99.90;;;;;;5024641;28;20517;-71
2023/08/02 05:18:03;;;;;;;16.10;6.43;;;15.90;99.90;;;;;;5053178;28;20075;-74
2023/08/02 05:20:33;;;;;;;17.85;6.43;;;15.90;99.90;;;;;;5052540;28;20127;-71
2023/08/02 05:23:01;;;;;;;13.23;5.80;;;15.90;99.90;;;;;;5047890;28;20383;-73
2023/08/02 05:25:32;;;;;;;13.55;6.35;;;15.90;99.90;;;;;;5051110;28;20099;-70
2023/08/02 05:27:57;;;;;;;16.58;6.68;;;15.90;99.90;;;;;;5084285;28;20066;-70
2023/08/02 05:30:23;;;;;;;12.05;5.40;;;15.90;99.90;;;;;;5051238;28;20378;-71
2023/08/02 05:32:49;;;;;;;16.05;6.90;;;15.90;99.90;;;;;;5051479;28;20047;-71
2023/08/02 05:35:15;;;;;;;16.02;6.00;;;16.00;99.90;;;;;;5051020;28;20128;-71
2023/08/02 05:37:40;;;;;;;13.55;6.43;;;16.00;99.90;;;;;;5050776;28;20053;-72
2023/08/02 05:40:07;;;;;;;15.02;7.07;;;16.00;99.90;;;;;;5034793;28;20052;-72
2023/08/02 05:42:32;;;;;;;15.50;6.15;;;16.10;99.90;;;;;;5050496;28;20044;-71
2023/08/02 05:44:58;;;;;;;15.55;6.55;;;16.10;99.90;;;;;;5050499;28;20037;-71
2023/08/02 05:47:24;;;;;;;13.48;6.13;;;16.10;99.90;;;;;;5052052;28;20509;-71
2023/08/02 05:49:50;;;;;;;14.10;6.13;;;16.20;99.90;;;;;;5052466;28;20037;-72
2023/08/02 05:52:15;;;;;;;16.92;6.13;;;16.30;99.90;;;;;;5051933;28;20060;-72
2023/08/02 05:54:41;;;;;;;12.73;6.18;;;16.30;99.90;;;;;;5052153;28;20416;-72
2023/08/02 05:57:10;;;;;;;20.48;6.05;;;16.30;99.90;;;;;;5051321;28;20055;-72
2023/08/02 05:59:37;;;;;;;14.50;5.93;;;16.40;99.90;;;;;;5050528;28;20155;-72
2023/08/02 06:02:07;;;;;;;11.27;5.43;;;16.70;99.90;;;;;;5050799;28;20053;-72
2023/08/02 06:04:43;;;;;;;11.65;5.50;;;16.90;99.90;;;;;;5051909;28;20045;-72
2023/08/02 06:07:09;;;;;;;12.80;5.43;;;17.00;99.90;;;;;;5052173;28;20036;-72
2023/08/02 06:09:35;;;;;;;12.45;5.93;;;16.80;99.90;;;;;;5050202;28;20131;-71
2023/08/02 06:12:01;;;;;;;15.57;6.10;;;16.70;99.90;;;;;;5034231;28;20124;-71
2023/08/02 06:14:27;;;;;;;12.32;5.63;;;16.60;99.90;;;;;;5039569;28;20048;-71
2023/08/02 06:16:53;;;;;;;14.98;5.90;;;16.60;99.90;;;;;;5050065;28;20425;-72
2023/08/02 06:19:18;;;;;;;12.23;5.43;;;16.60;99.90;;;;;;5050152;28;20041;-71
2023/08/02 06:21:44;;;;;;;13.07;5.70;;;16.60;99.90;;;;;;5047326;28;20037;-72
2023/08/02 06:24:10;;;;;;;12.80;6.18;;;16.80;99.90;;;;;;5050764;28;20044;-72
2023/08/02 06:26:36;;;;;;;11.98;5.30;;;17.00;99.90;;;;;;5052494;28;20418;-73
2023/08/02 06:29:01;;;;;;;16.55;5.97;;;17.20;99.90;;;;;;5050339;28;20033;-72
2023/08/02 06:31:27;;;;;;;16.73;5.70;;;17.10;99.90;;;;;;5033003;28;20049;-72
2023/08/02 06:33:53;;;;;;;13.20;5.90;;;17.30;99.90;;;;;;5051888;28;20041;-72
2023/08/02 06:36:19;;;;;;;11.10;5.38;;;17.30;99.90;;;;;;5049947;28;20079;-70
2023/08/02 06:38:47;;;;;;;14.85;5.82;;;17.40;99.90;;;;;;5051530;28;20120;-71
2023/08/02 06:41:13;;;;;;;14.02;6.25;;;17.40;99.90;;;;;;5031960;28;20380;-69
2023/08/02 06:43:38;;;;;;;12.18;5.97;;;17.40;99.90;;;;;;5050731;28;20048;-69
2023/08/02 06:46:05;;;;;;;15.30;6.05;;;17.40;99.90;;;;;;5051023;28;20483;-69
2023/08/02 06:48:31;;;;;;;11.65;5.32;;;17.40;99.90;;;;;;5050900;28;20045;-70
2023/08/02 06:50:57;;;;;;;12.98;5.95;;;17.50;99.90;;;;;;5051314;28;20161;-69
2023/08/02 06:53:23;;;;;;;10.95;5.30;;;17.60;99.90;;;;;;5049901;28;20157;-69
2023/08/02 06:55:49;;;;;;;12.70;5.50;;;17.60;99.90;;;;;;5020067;28;20140;-68
2023/08/02 06:58:15;;;;;;;13.90;5.78;;;17.60;99.90;;;;;;5049698;28;20486;-69
2023/08/02 07:00:42;;;;;;;9.52;5.28;;;17.60;99.90;;;;;;5050658;28;20048;-70
2023/08/02 07:03:07;;;;;;;10.27;6.20;;;17.60;99.90;;;;;;5050957;28;20233;-71
2023/08/02 07:05:34;;;;;;;17.35;6.25;;;17.60;99.90;;;;;;5049152;28;20486;-74
2023/08/02 07:08:01;;;;;;;14.85;6.35;;;17.60;99.90;;;;;;5049945;28;20128;-73
2023/08/02 07:10:28;;;;;;;12.57;6.60;;;17.60;99.90;;;;;;5049303;28;20049;-77
2023/08/02 07:12:55;;;;;;;13.90;6.63;;;17.60;99.90;;;;;;5048704;28;20408;-75
2023/08/02 07:15:21;;;;;;;11.77;6.38;;;17.70;99.90;;;;;;5047322;28;20037;-76
2023/08/02 07:17:47;;;;;;;10.45;6.50;;;17.60;99.90;;;;;;5060250;28;20052;-77
2023/08/02 07:20:14;;;;;;;13.88;6.50;;;17.60;99.90;;;;;;5049506;28;20454;-79
2023/08/02 07:22:42;;;;;;;13.85;6.50;;;17.70;99.90;;;;;;5037222;28;20049;-79
2023/08/02 07:25:09;;;;;;;10.52;6.45;;;17.70;99.90;;;;;;5048301;28;20089;-80
2023/08/02 07:27:35;;;;;;;11.90;5.63;;;17.80;99.90;;;;;;5033058;28;20041;-78
2023/08/02 07:30:02;;;;;;;12.57;6.50;;;17.70;99.90;;;;;;5049782;28;20045;-76
2023/08/02 07:32:29;;;;;;;13.70;5.93;;;17.60;99.90;;;;;;5032564;28;20057;-72
2023/08/02 07:34:54;;;;;;;9.65;5.50;;;17.60;99.90;;;;;;5051669;28;20483;-77
2023/08/02 07:37:20;;;;;;;12.18;5.30;;;17.60;99.90;;;;;;5050025;28;20137;-77
2023/08/02 07:39:46;;;;;;;20.25;5.55;;;17.50;99.90;;;;;;5049378;28;20110;-79
2023/08/02 07:42:12;;;;;;;13.73;5.38;;;17.50;99.90;;;;;;5050576;28;20080;-76
2023/08/02 07:44:38;;;;;;;13.38;5.95;;;17.40;99.90;;;;;;5048352;28;20446;-77
2023/08/02 07:47:04;;;;;;;11.95;5.32;;;17.40;99.90;;;;;;5044353;28;20394;-77
2023/08/02 07:49:33;;;;;;;9.05;4.85;;;17.40;99.90;;;;;;5057509;28;20046;-71
2023/08/02 07:51:59;;;;;;;13.43;5.50;;;17.40;99.90;;;;;;5030964;28;20132;-76
2023/08/02 07:54:24;;;;;;;12.23;5.13;;;17.40;99.90;;;;;;5047850;28;20179;-77
2023/08/02 07:56:50;;;;;;;11.43;4.75;;;17.40;99.90;;;;;;5028635;28;20051;-77
2023/08/02 07:59:16;;;;;;;12.25;4.75;;;17.40;99.90;;;;;;5040220;28;20072;-77
2023/08/02 08:01:42;;;;;;;11.73;5.13;;;17.30;99.90;;;;;;5053250;28;20044;-77
2023/08/02 08:04:08;;;;;;;9.20;4.30;;;17.40;99.90;;;;;;5053612;28;20049;-75
2023/08/02 08:06:34;;;;;;;9.40;4.45;;;17.30;99.90;;;;;;5053305;28;20066;-75
2023/08/02 08:09:00;;;;;;;13.60;4.75;;;17.20;99.90;;;;;;5053090;28;20041;-79
2023/08/02 08:11:29;;;;;;;20.90;5.32;;;17.30;99.90;;;;;;5036616;28;20057;-78
2023/08/02 08:13:55;;;;;;;10.88;4.07;;;17.30;99.90;;;;;;5042680;28;20104;-69
2023/08/02 08:16:21;;;;;;;10.85;4.88;;;17.30;99.90;;;;;;5049999;28;20116;-73
2023/08/02 08:18:47;;;;;;;10.00;4.45;;;17.20;99.90;;;;;;5053669;28;20120;-76
2023/08/02 08:21:13;;;;;;;7.90;4.50;;;17.20;99.90;;;;;;5069545;28;20045;-74
2023/08/02 08:23:40;;;;;;;10.23;3.83;;;17.10;99.90;;;;;;5053792;28;20041;-76
2023/08/02 08:26:10;;;;;;;9.75;4.55;;;17.00;99.90;;;;;;5053303;28;20053;-75
2023/08/02 08:28:35;;;;;;;7.97;4.35;;;17.00;99.90;;;;;;5035254;28;20060;-72
2023/08/02 08:31:03;;;;;;;7.22;3.40;;;17.00;99.90;;;;;;5053623;28;20045;-76
2023/08/02 08:33:30;;;;;;;9.43;3.83;;;16.90;99.90;;;;;;5052533;28;20069;-77
2023/08/02 08:35:56;;;;;;;10.73;4.63;;;16.80;99.90;;;;;;5053489;28;20036;-75
2023/08/02 08:38:21;;;;;;;8.32;4.07;;;16.80;99.90;;;;;;5052491;28;20128;-73
2023/08/02 08:40:55;;;;;;;10.38;4.55;;;16.70;99.90;;;;;;5052852;28;20767;-74
2023/08/02 08:43:28;;;;;;;7.70;4.22;;;16.70;99.90;;;;;;5053671;28;20131;-74
2023/08/02 08:45:54;;;;;;;10.88;3.90;;;16.70;99.90;;;;;;5052416;28;20391;-76
2023/08/02 08:48:21;;;;;;;6.97;3.58;;;16.60;99.90;;;;;;5052473;28;20041;-73
2023/08/02 08:50:50;;;;;;;14.98;4.47;;;16.60;99.90;;;;;;5052853;28;20048;-73
2023/08/02 08:53:34;;;;;;;9.38;5.00;;;16.60;99.90;;;;;;5052698;28;20041;-74
2023/08/02 08:56:01;;;;;;;12.55;4.53;;;16.50;99.90;;;;;;5040726;28;20091;-75
2023/08/02 08:58:28;;;;;;;18.98;5.55;;;16.40;99.90;;;;;;5035748;28;20053;-73
2023/08/02 09:00:54;;;;;;;12.77;5.10;;;16.40;99.90;;;;;;5051655;28;20045;-75
2023/08/02 09:03:20;;;;;;;12.18;5.25;;;16.30;99.90;;;;;;5052196;28;20064;-74
2023/08/02 09:05:46;;;;;;;17.02;5.38;;;16.20;99.90;;;;;;5052108;28;20487;-73
2023/08/02 09:08:12;;;;;;;16.08;5.43;;;16.10;99.90;;;;;;5053422;28;20048;-71
2023/08/02 09:10:39;;;;;;;12.60;5.00;;;16.00;99.90;;;;;;5033447;28;20037;-72
2023/08/02 09:13:05;;;;;;;9.48;4.70;;;15.90;99.90;;;;;;5047793;28;20120;-73
2023/08/02 09:15:31;;;;;;;12.85;5.07;;;15.90;99.90;;;;;;5042947;28;20045;-71
2023/08/02 09:17:57;;;;;;;10.63;4.40;;;15.80;99.90;;;;;;5050699;28;20064;-71
2023/08/02 09:20:24;;;;;;;12.80;5.57;;;15.80;99.90;;;;;;5051536;28;20060;-71
2023/08/02 09:22:50;;;;;;;10.05;4.82;;;15.70;99.90;;;;;;5052505;28;20055;-71
2023/08/02 09:25:42;;;;;;;10.73;4.68;;;15.70;99.90;;;;;;5049849;28;20103;-71
2023/08/02 09:28:11;;;;;;;11.40;4.38;;;15.60;99.90;;;;;;5075946;28;20060;-71
2023/08/02 09:30:40;;;;;;;13.07;4.63;;;15.70;99.90;;;;;;5051530;28;20060;-71
2023/08/02 09:33:06;;;;;;;10.23;5.20;;;15.60;99.90;;;;;;5045847;28;20136;-72
2023/08/02 09:35:52;;;;;;;9.45;4.50;;;15.60;99.90;;;;;;5034398;28;20053;-73
2023/08/02 09:38:18;;;;;;;8.05;4.90;;;15.60;99.90;;;;;;5041125;28;20061;-72
2023/08/02 09:40:48;;;;;;;8.27;4.35;;;15.60;99.90;;;;;;5046626;28;20047;-72
2023/08/02 09:43:17;;;;;;;12.77;5.25;;;15.70;99.90;;;;;;5052340;28;20179;-73
2023/08/02 09:45:43;;;;;;;7.65;4.25;;;15.60;99.90;;;;;;5045512;28;20127;-72
2023/08/02 09:48:09;;;;;;;11.88;4.95;;;15.60;99.90;;;;;;5024610;28;20151;-72
2023/08/02 09:50:55;;;;;;;11.35;5.13;;;15.70;99.90;;;;;;5048859;28;20045;-73
2023/08/02 09:53:22;;;;;;;12.20;5.30;;;15.60;99.90;;;;;;5048331;28;20387;-73
2023/08/02 09:55:49;;;;;;;11.15;5.15;;;15.70;99.90;;;;;;5051313;28;20040;-71
2023/08/02 09:58:16;;;;;;;11.07;5.78;;;15.70;99.90;;;;;;5050487;28;20566;-77
2023/08/02 10:00:41;;;;;;;11.43;6.03;;;15.70;99.90;;;;;;5049173;28;20111;-73
2023/08/02 10:03:09;;;;;;;12.55;5.78;;;15.80;99.90;;;;;;5051134;28;20036;-73
2023/08/02 10:05:43;;;;;;;11.43;5.90;;;15.80;99.90;;;;;;5051173;28;20128;-76
2023/08/02 10:08:11;;;;;;;8.57;5.20;;;15.80;99.90;;;;;;5046807;28;20053;-75
2023/08/02 10:10:45;;;;;;;15.85;6.55;;;15.80;99.90;;;;;;5033353;28;20052;-74
2023/08/02 10:13:25;;;;;;;11.00;6.40;;;15.80;99.90;;;;;;5046602;28;20451;-74
2023/08/02 10:15:51;;;;;;;9.77;6.00;;;15.80;99.90;;;;;;5042766;28;20037;-72
2023/08/02 10:18:17;;;;;;;9.73;5.78;;;15.90;99.90;;;;;;5051644;28;20133;-73
2023/08/02 10:20:45;;;;;;;12.88;6.50;;;15.90;99.90;;;;;;5051309;28;20041;-73
2023/08/02 10:23:11;;;;;;;10.57;6.72;;;15.90;99.90;;;;;;5046781;28;20356;-72
2023/08/02 10:25:37;;;;;;;10.98;6.60;;;15.90;99.90;;;;;;5041364;28;20099;-73
2023/08/02 10:28:03;;;;;;;10.73;6.45;;;15.80;99.90;;;;;;5031383;28;20407;-73
2023/08/02 10:30:30;;;;;;;15.10;7.03;;;15.80;99.90;;;;;;5050715;28;20041;-74
2023/08/02 10:33:13;;;;;;;13.88;6.72;;;15.80;99.90;;;;;;5045205;28;20125;-75
2023/08/02 10:35:58;;;;;;;9.75;6.53;;;15.80;99.90;;;;;;5046028;28;20128;-72
2023/08/02 10:38:27;;;;;;;13.35;7.13;;;15.90;99.90;;;;;;5031267;28;20044;-71
2023/08/02 10:41:04;;;;;;;15.55;6.53;;;15.80;99.90;;;;;;5029577;28;20063;-68
2023/08/02 10:43:30;;;;;;;9.00;5.22;;;15.90;99.90;;;;;;5046528;28;20048;-72
2023/08/02 10:46:33;;;;;;;11.50;5.65;;;15.80;99.90;;;;;;5049189;28;20513;-69
2023/08/02 10:49:10;;;;;;;9.23;5.32;;;15.80;99.90;;;;;;5004688;28;20052;-71
2023/08/02 10:51:37;;;;;;;10.02;6.32;;;15.80;99.90;;;;;;5069732;28;20060;-71
2023/08/02 10:54:13;;;;;;;8.50;5.32;;;15.80;99.90;;;;;;5031493;28;20375;-70
2023/08/02 10:57:10;;;;;;;16.27;5.65;;;15.80;99.90;;;;;;5049579;28;20068;-70
2023/08/02 10:59:40;;;;;;;8.63;5.75;;;15.80;99.90;;;;;;5048456;28;20169;-69
2023/08/02 11:02:07;;;;;;;9.57;4.35;;;15.80;99.90;;;;;;5049422;28;20037;-70
2023/08/02 11:04:35;;;;;;;8.15;4.28;;;15.90;99.90;;;;;;5050581;28;20045;-71
2023/08/02 11:07:16;;;;;;;12.90;5.07;;;15.90;99.90;;;;;;5050217;28;20116;-72
2023/08/02 11:09:42;;;;;;;7.53;4.70;;;16.00;99.90;;;;;;5044416;28;20119;-72
2023/08/02 11:12:13;;;;;;;7.30;3.58;;;16.00;99.90;;;;;;5048515;28;20458;-71
2023/08/02 11:14:40;;;;;;;10.70;4.82;;;16.10;99.90;;;;;;5048349;28;20403;-72
2023/08/02 11:17:06;;;;;;;5.10;3.42;;;16.10;99.90;;;;;;5048216;28;20052;-72
2023/08/02 11:19:32;;;;;;;6.13;3.17;;;16.10;99.90;;;;;;5048074;28;20049;-71
2023/08/02 11:22:01;;;;;;;5.45;2.90;;;16.10;99.90;;;;;;5047426;28;20053;-70
2023/08/02 11:24:27;;;;;;;8.10;2.88;;;16.10;99.90;;;;;;5033620;28;20059;-74
2023/08/02 11:26:54;;;;;;;4.72;2.25;;;16.10;99.90;;;;;;5049426;28;20033;-72
2023/08/02 11:29:20;;;;;;;4.63;2.53;;;16.20;99.90;;;;;;5047911;28;20749;-70
2023/08/02 11:31:47;;;;;;;4.38;2.50;;;16.10;99.90;;;;;;5032449;28;20131;-71
2023/08/02 11:34:18;;;;;;;4.30;2.38;;;16.10;99.90;;;;;;5053986;28;20091;-71
2023/08/02 11:36:45;;;;;;;3.53;2.38;;;16.10;99.90;;;;;;5053068;28;20041;-71
2023/08/02 11:39:15;;;;;;;3.40;2.30;;;16.20;99.90;;;;;;5053899;28;20520;-72
2023/08/02 11:41:40;;;;;;;3.72;2.40;;;16.20;99.90;;;;;;5053194;28;20401;-71
2023/08/02 11:44:19;;;;;;;3.42;2.25;;;16.30;99.90;;;;;;5053521;28;20045;-72
2023/08/02 11:46:56;;;;;;;5.38;2.33;;;16.30;99.90;;;;;;5052609;28;20068;-71
2023/08/02 11:49:22;;;;;;;3.90;2.03;;;16.30;99.90;;;;;;5053014;28;20320;-73
2023/08/02 11:51:48;;;;;;;3.25;2.20;;;16.40;99.90;;;;;;5065164;28;20099;-73
2023/08/02 11:54:14;;;;;;;3.33;2.10;;;16.40;99.90;;;;;;5052778;28;20482;-73
2023/08/02 11:56:40;;;;;;;4.93;2.35;;;16.40;99.90;;;;;;5036492;28;20156;-74
2023/08/02 11:59:13;;;;;;;4.70;2.65;;;16.40;99.90;;;;;;5043286;28;20053;-72
2023/08/02 12:01:42;;;;;;;5.03;2.90;;;16.50;99.90;;;;;;5046000;28;20055;-72
2023/08/02 12:04:09;;;;;;;4.82;2.65;;;16.50;99.90;;;;;;5049091;28;20045;-72
2023/08/02 12:07:03;;;;;;;5.03;2.60;;;16.60;99.90;;;;;;5048119;28;20045;-73
2023/08/02 12:09:40;;;;;;;;;;;16.60;99.90;;;;;;5032231;28;20052;-72
2023/08/02 12:12:06;;;;;;;4.32;2.42;;;16.60;99.90;;;;;;5051419;28;19931;-71
2023/08/02 12:14:32;;;;;;;7.15;2.60;;;16.70;99.90;;;;;;5040077;28;20483;-72
2023/08/02 12:16:57;;;;;;;3.35;2.20;;;16.70;99.90;;;;;;5051785;28;20037;-73
2023/08/02 12:19:40;;;;;;;4.70;2.30;;;16.80;99.90;;;;;;5069024;28;20052;-72
2023/08/02 12:22:06;;;;;;;4.13;2.28;;;16.80;99.90;;;;;;5053961;28;20044;-72
2023/08/02 12:24:32;;;;;;;3.30;2.20;;;17.00;99.90;;;;;;5052810;28;20120;-72
2023/08/02 12:27:19;;;;;;;2.05;1.70;;;17.20;99.90;;;;;;5052670;28;20033;-73
2023/08/02 12:29:46;;;;;;;2.53;1.92;;;17.40;99.90;;;;;;5054119;28;20150;-72
2023/08/02 12:32:26;;;;;;;2.20;1.63;;;17.50;99.90;;;;;;5068611;28;20049;-71
2023/08/02 12:34:53;;;;;;;2.47;1.60;;;17.60;99.90;;;;;;5035918;28;20389;-72
2023/08/02 12:37:18;;;;;;;2.15;1.60;;;17.60;99.90;;;;;;5051755;28;20396;-72
2023/08/02 12:39:44;;;;;;;4.03;2.00;;;17.70;99.90;;;;;;5052726;28;20076;-72
2023/08/02 12:42:10;;;;;;;4.70;2.10;;;17.60;99.90;;;;;;5052459;28;20044;-71
2023/08/02 12:44:37;;;;;;;2.78;1.95;;;17.70;99.90;;;;;;5035386;28;20405;-71